createdAt,value
2018-12-13T00:00:59.929Z,13.10
2018-12-13T00:03:31.476Z,13.03
2018-12-13T00:06:03.037Z,12.57
2018-12-13T00:08:32.921Z,13.47
2018-12-13T00:11:02.595Z,12.90
2018-12-13T00:13:32.720Z,12.90
2018-12-13T00:16:02.337Z,12.97
2018-12-13T00:18:32.049Z,13.50
2018-12-13T00:21:01.769Z,13.30
2018-12-13T00:23:31.413Z,13.60
2018-12-13T00:26:01.039Z,13.23
2018-12-13T00:28:30.619Z,13.10
2018-12-13T00:31:00.210Z,14.03
2018-12-13T00:33:29.900Z,14.17
2018-12-13T00:35:59.516Z,13.80
2018-12-13T00:38:30.187Z,13.77
2018-12-13T00:40:59.877Z,13.17
2018-12-13T00:43:30.460Z,14.20
2018-12-13T00:46:00.043Z,13.33
2018-12-13T00:48:29.688Z,13.47
2018-12-13T00:50:59.403Z,13.53
2018-12-13T00:53:28.993Z,14.30
2018-12-13T00:55:58.592Z,14.30
2018-12-13T00:58:28.282Z,15.00
2018-12-13T01:01:00.785Z,14.43
2018-12-13T01:03:30.601Z,14.10
2018-12-13T01:06:00.280Z,13.97
2018-12-13T01:08:29.879Z,14.07
2018-12-13T01:10:59.581Z,14.90
2018-12-13T01:13:29.164Z,14.50
2018-12-13T01:15:58.862Z,13.70
2018-12-13T01:18:28.627Z,14.17
2018-12-13T01:20:58.283Z,13.90
2018-12-13T01:23:27.865Z,14.33
2018-12-13T01:25:57.459Z,14.10
2018-12-13T01:28:27.099Z,14.07
2018-12-13T01:30:56.927Z,13.37
2018-12-13T01:33:26.517Z,14.30
2018-12-13T01:35:56.100Z,14.17
2018-12-13T01:38:25.952Z,13.60
2018-12-13T01:40:55.560Z,14.80
2018-12-13T01:43:25.280Z,14.07
2018-12-13T01:45:55.468Z,14.00
2018-12-13T01:48:25.060Z,14.33
2018-12-13T01:50:55.637Z,14.07
2018-12-13T01:53:25.992Z,15.00
2018-12-13T01:55:55.604Z,14.70
2018-12-13T01:58:25.191Z,14.17
2018-12-13T02:00:54.829Z,14.50
2018-12-13T02:03:24.421Z,15.07
2018-12-13T02:05:54.009Z,14.97
2018-12-13T02:08:23.616Z,15.37
2018-12-13T02:10:53.180Z,14.10
2018-12-13T02:13:22.893Z,14.50
2018-12-13T02:15:52.589Z,14.90
2018-12-13T02:18:22.177Z,15.17
2018-12-13T02:20:51.758Z,15.70
2018-12-13T02:23:21.388Z,16.37
2018-12-13T02:25:51.000Z,15.20
2018-12-13T02:28:20.576Z,15.10
2018-12-13T02:30:50.196Z,15.17
2018-12-13T02:33:20.328Z,14.77
2018-12-13T02:35:50.051Z,15.57
2018-12-13T02:38:19.687Z,15.53
2018-12-13T02:40:49.279Z,16.30
2018-12-13T02:43:18.969Z,16.20
2018-12-13T02:45:48.608Z,15.03
2018-12-13T02:48:18.309Z,15.07
2018-12-13T02:50:47.925Z,15.37
2018-12-13T02:53:17.529Z,15.93
2018-12-13T02:55:47.213Z,15.47
2018-12-13T02:58:16.845Z,16.10
2018-12-13T03:00:46.442Z,15.97
2018-12-13T03:03:16.117Z,14.83
2018-12-13T03:05:45.691Z,15.20
2018-12-13T03:08:15.383Z,16.40
2018-12-13T03:10:44.991Z,15.10
2018-12-13T03:13:14.571Z,16.00
2018-12-13T03:15:44.207Z,15.63
2018-12-13T03:18:15.713Z,14.93
2018-12-13T03:20:45.371Z,15.57
2018-12-13T03:23:14.983Z,16.23
2018-12-13T03:25:44.581Z,14.73
2018-12-13T03:28:14.215Z,15.77
2018-12-13T03:30:43.805Z,16.07
2018-12-13T03:33:13.458Z,16.13
2018-12-13T03:35:43.214Z,16.17
2018-12-13T03:38:12.820Z,16.63
2018-12-13T03:40:42.408Z,16.33
2018-12-13T03:43:12.038Z,16.20
2018-12-13T03:45:41.673Z,16.50
2018-12-13T03:48:11.213Z,16.70
2018-12-13T03:50:40.920Z,17.07
2018-12-13T03:53:11.485Z,16.90
2018-12-13T03:55:41.068Z,16.40
2018-12-13T03:58:10.679Z,16.50
2018-12-13T04:00:41.384Z,17.10
2018-12-13T04:03:11.967Z,16.43
2018-12-13T04:05:41.628Z,16.67
2018-12-13T04:08:11.280Z,16.67
2018-12-13T04:10:40.928Z,16.03
2018-12-13T04:13:10.509Z,15.97
2018-12-13T04:15:40.258Z,16.50
2018-12-13T04:18:09.892Z,16.50
2018-12-13T04:20:41.477Z,17.07
2018-12-13T04:23:11.063Z,16.87
2018-12-13T04:25:40.691Z,16.23
2018-12-13T04:28:10.284Z,18.03
2018-12-13T04:30:39.961Z,21.00
2018-12-13T04:33:09.634Z,19.73
2018-12-13T04:35:39.264Z,18.97
2018-12-13T04:38:08.852Z,18.67
2018-12-13T04:40:38.519Z,19.43
2018-12-13T04:43:08.166Z,18.53
2018-12-13T04:45:37.889Z,18.40
2018-12-13T04:48:07.505Z,17.50
2018-12-13T04:50:37.131Z,18.43
2018-12-13T04:53:06.756Z,17.50
2018-12-13T04:55:36.341Z,17.53
2018-12-13T04:58:06.087Z,16.43
2018-12-13T05:00:35.716Z,17.27
2018-12-13T05:03:05.317Z,16.43
2018-12-13T05:05:35.019Z,16.37
2018-12-13T05:08:04.595Z,15.67
2018-12-13T05:10:45.526Z,15.83
2018-12-13T05:13:15.127Z,17.67
2018-12-13T05:15:44.897Z,17.77
2018-12-13T05:18:14.563Z,17.73
2018-12-13T05:20:45.044Z,18.17
2018-12-13T05:23:14.738Z,17.93
2018-12-13T05:25:46.273Z,17.73
2018-12-13T05:28:16.363Z,18.00
2018-12-13T05:30:46.084Z,17.40
2018-12-13T05:33:15.722Z,16.87
2018-12-13T05:35:45.447Z,16.30
2018-12-13T05:38:15.020Z,17.10
2018-12-13T05:40:44.669Z,17.17
2018-12-13T05:43:14.299Z,17.97
2018-12-13T05:45:43.891Z,17.63
2018-12-13T05:48:13.473Z,16.97
2018-12-13T05:50:43.071Z,16.20
2018-12-13T05:53:12.863Z,17.10
2018-12-13T05:55:42.513Z,16.30
2018-12-13T05:58:12.181Z,16.87
2018-12-13T06:00:41.803Z,15.63
2018-12-13T06:03:11.388Z,16.90
2018-12-13T06:05:41.039Z,16.90
2018-12-13T06:08:10.633Z,16.87
2018-12-13T06:10:41.161Z,17.20
2018-12-13T06:13:10.742Z,16.83
2018-12-13T06:15:40.455Z,17.00
2018-12-13T06:18:10.232Z,16.53
2018-12-13T06:20:39.812Z,16.53
2018-12-13T06:23:09.409Z,16.43
2018-12-13T06:25:39.041Z,17.27
2018-12-13T06:28:08.733Z,17.07
2018-12-13T06:30:38.326Z,17.70
2018-12-13T06:33:07.973Z,17.27
2018-12-13T06:35:37.596Z,18.13
2018-12-13T06:38:07.222Z,17.67
2018-12-13T06:40:36.803Z,17.10
2018-12-13T06:43:06.524Z,16.97
2018-12-13T06:45:36.128Z,16.80
2018-12-13T06:48:05.856Z,17.63
2018-12-13T06:50:35.465Z,17.23
2018-12-13T06:53:05.164Z,17.93
2018-12-13T06:55:34.833Z,18.40
2018-12-13T06:58:04.425Z,17.63
2018-12-13T07:00:34.101Z,17.00
2018-12-13T07:03:03.785Z,17.00
2018-12-13T07:05:33.361Z,18.27
2018-12-13T07:08:07.829Z,17.90
2018-12-13T07:10:34.532Z,18.30
2018-12-13T07:13:04.145Z,18.27
2018-12-13T07:15:33.747Z,18.00
2018-12-13T07:18:03.501Z,17.63
2018-12-13T07:20:33.134Z,17.63
2018-12-13T07:23:02.741Z,17.53
2018-12-13T07:25:32.687Z,17.53
2018-12-13T07:28:02.283Z,17.73
2018-12-13T07:30:32.017Z,18.37
2018-12-13T07:33:01.622Z,17.30
2018-12-13T07:35:31.304Z,17.20
2018-12-13T07:38:00.928Z,16.83
2018-12-13T07:40:30.507Z,17.17
2018-12-13T07:43:00.178Z,17.80
2018-12-13T07:45:29.801Z,17.87
2018-12-13T07:47:59.448Z,17.07
2018-12-13T07:50:29.040Z,17.30
2018-12-13T07:52:58.733Z,16.60
2018-12-13T07:55:28.379Z,17.40
2018-12-13T07:57:57.996Z,18.17
2018-12-13T08:00:27.612Z,17.47
2018-12-13T08:02:57.221Z,16.50
2018-12-13T08:05:26.801Z,16.93
2018-12-13T08:07:56.467Z,17.60
2018-12-13T08:10:26.215Z,16.87
2018-12-13T08:12:55.808Z,17.33
2018-12-13T08:15:25.403Z,17.03
2018-12-13T08:17:55.157Z,17.30
2018-12-13T08:20:26.644Z,16.53
2018-12-13T08:22:56.291Z,17.70
2018-12-13T08:25:25.919Z,17.30
2018-12-13T08:27:55.510Z,16.47
2018-12-13T08:30:25.101Z,16.40
2018-12-13T08:32:54.766Z,16.67
2018-12-13T08:35:24.348Z,16.73
2018-12-13T08:37:54.093Z,16.97
2018-12-13T08:40:23.741Z,17.23
2018-12-13T08:42:53.352Z,16.40
2018-12-13T08:45:24.357Z,16.67
2018-12-13T08:47:54.163Z,16.23
2018-12-13T08:50:23.780Z,15.67
2018-12-13T08:52:54.396Z,16.73
2018-12-13T08:55:24.049Z,16.03
2018-12-13T08:57:53.760Z,16.23
2018-12-13T09:00:23.337Z,15.67
2018-12-13T09:02:52.957Z,15.70
2018-12-13T09:05:22.545Z,16.97
2018-12-13T09:07:53.059Z,19.50
2018-12-13T09:10:22.661Z,20.27
2018-12-13T09:12:52.245Z,16.80
2018-12-13T09:15:22.800Z,16.30
2018-12-13T09:17:52.391Z,16.93
2018-12-13T09:20:21.972Z,16.57
2018-12-13T09:22:51.607Z,16.93
2018-12-13T09:25:21.239Z,16.27
2018-12-13T09:27:50.920Z,17.03
2018-12-13T09:30:20.520Z,16.70
2018-12-13T09:32:50.163Z,16.97
2018-12-13T09:35:19.783Z,16.83
2018-12-13T09:37:49.381Z,15.57
2018-12-13T09:40:19.047Z,16.27
2018-12-13T09:42:48.700Z,16.57
2018-12-13T09:45:18.437Z,17.73
2018-12-13T09:47:48.046Z,16.57
2018-12-13T09:50:17.818Z,16.53
2018-12-13T09:52:54.102Z,16.33
2018-12-13T09:55:23.868Z,16.03
2018-12-13T09:57:53.527Z,14.90
2018-12-13T10:00:23.115Z,15.27
2018-12-13T10:02:52.720Z,14.37
2018-12-13T10:05:22.321Z,14.23
2018-12-13T10:07:51.909Z,14.70
2018-12-13T10:10:21.518Z,15.17
2018-12-13T10:12:51.118Z,14.50
2018-12-13T10:15:20.725Z,14.50
2018-12-13T10:17:50.306Z,14.40
2018-12-13T10:20:19.899Z,14.60
2018-12-13T10:22:49.588Z,14.60
2018-12-13T10:25:19.584Z,13.67
2018-12-13T10:27:49.255Z,14.37
2018-12-13T10:30:18.831Z,14.50
2018-12-13T10:32:48.608Z,14.83
2018-12-13T10:35:18.196Z,13.83
2018-12-13T10:37:47.783Z,15.30
2018-12-13T10:40:17.383Z,14.73
2018-12-13T10:42:47.004Z,14.33
2018-12-13T10:45:16.704Z,15.80
2018-12-13T10:47:46.396Z,14.43
2018-12-13T10:50:16.064Z,14.20
2018-12-13T10:52:45.728Z,14.67
2018-12-13T10:55:15.308Z,15.27
2018-12-13T10:57:44.944Z,15.00
2018-12-13T11:00:19.841Z,14.50
2018-12-13T11:03:05.028Z,16.13
2018-12-13T11:05:34.669Z,15.73
2018-12-13T11:08:04.305Z,15.67
2018-12-13T11:10:33.886Z,15.57
2018-12-13T11:13:03.476Z,16.30
2018-12-13T11:15:33.078Z,15.83
2018-12-13T11:18:02.656Z,16.57
2018-12-13T11:20:32.338Z,16.40
2018-12-13T11:23:02.282Z,16.53
2018-12-13T11:25:31.885Z,16.17
2018-12-13T11:30:15.488Z,15.70
2018-12-13T11:32:45.188Z,16.00
2018-12-13T11:35:15.695Z,16.70
2018-12-13T11:37:45.284Z,16.57
2018-12-13T11:40:14.973Z,16.53
2018-12-13T11:42:44.603Z,16.60
2018-12-13T11:45:14.179Z,16.83
2018-12-13T11:47:43.783Z,17.00
2018-12-13T11:50:13.483Z,16.40
2018-12-13T11:52:43.088Z,16.70
2018-12-13T11:55:27.030Z,16.67
2018-12-13T11:57:57.832Z,16.50
2018-12-13T12:00:27.424Z,16.37
2018-12-13T12:02:57.036Z,16.47
2018-12-13T12:05:26.705Z,16.77
2018-12-13T12:07:56.392Z,16.47
2018-12-13T12:10:27.045Z,17.50
2018-12-13T12:12:56.632Z,15.93
2018-12-13T12:15:26.500Z,17.20
2018-12-13T12:17:56.092Z,16.67
2018-12-13T12:20:25.676Z,17.27
2018-12-13T12:22:55.354Z,16.70
2018-12-13T12:25:25.067Z,16.60
2018-12-13T12:27:54.661Z,16.90
2018-12-13T12:30:24.258Z,17.47
2018-12-13T12:32:53.904Z,18.07
2018-12-13T12:35:23.533Z,18.13
2018-12-13T12:37:53.112Z,17.57
2018-12-13T12:40:22.697Z,17.40
2018-12-13T12:42:52.332Z,17.80
2018-12-13T12:45:21.919Z,17.50
2018-12-13T12:47:51.528Z,17.40
2018-12-13T12:50:21.283Z,16.70
2018-12-13T12:52:50.888Z,16.03
2018-12-13T12:55:20.508Z,17.37
2018-12-13T12:57:50.084Z,17.07
2018-12-13T13:00:19.753Z,17.00
2018-12-13T13:02:50.261Z,16.90
2018-12-13T13:05:20.147Z,16.73
2018-12-13T13:07:49.711Z,17.00
2018-12-13T13:10:19.309Z,17.20
2018-12-13T13:12:49.012Z,17.00
2018-12-13T13:15:18.607Z,16.83
2018-12-13T13:17:48.288Z,17.40
2018-12-13T13:20:17.868Z,16.67
2018-12-13T13:22:47.496Z,17.37
2018-12-13T13:25:17.147Z,17.23
2018-12-13T13:27:46.936Z,17.07
2018-12-13T13:30:16.664Z,17.03
2018-12-13T13:32:46.267Z,17.43
2018-12-13T13:35:15.929Z,17.20
2018-12-13T13:37:45.544Z,17.40
2018-12-13T13:40:15.180Z,17.27
2018-12-13T13:42:44.748Z,16.80
2018-12-13T13:45:14.348Z,16.03
2018-12-13T13:47:44.814Z,16.80
2018-12-13T13:50:14.548Z,16.20
2018-12-13T13:52:44.279Z,16.20
2018-12-13T13:55:13.899Z,15.67
2018-12-13T13:57:43.536Z,16.43
2018-12-13T14:00:13.292Z,16.20
2018-12-13T14:02:42.879Z,16.03
2018-12-13T14:05:12.503Z,16.07
2018-12-13T14:07:43.121Z,16.53
2018-12-13T14:10:12.844Z,15.67
2018-12-13T14:12:42.432Z,16.50
2018-12-13T14:15:12.012Z,16.23
2018-12-13T14:17:41.600Z,16.80
2018-12-13T14:20:11.291Z,16.70
2018-12-13T14:22:41.275Z,17.40
2018-12-13T14:25:10.870Z,17.10
2018-12-13T14:27:40.529Z,16.50
2018-12-13T14:30:10.295Z,16.20
2018-12-13T14:32:39.994Z,16.60
2018-12-13T14:35:09.876Z,17.87
2018-12-13T14:37:39.627Z,17.27
2018-12-13T14:40:09.364Z,17.17
2018-12-13T14:42:41.004Z,16.63
2018-12-13T14:45:10.697Z,16.83
2018-12-13T14:47:40.277Z,17.30
2018-12-13T14:50:10.044Z,18.13
2018-12-13T14:52:39.740Z,16.83
2018-12-13T14:55:09.451Z,17.27
2018-12-13T14:57:39.027Z,17.43
2018-12-13T15:00:10.987Z,18.87
2018-12-13T15:02:40.671Z,16.57
2018-12-13T15:05:10.633Z,16.87
2018-12-13T15:07:40.320Z,17.93
2018-12-13T15:10:10.018Z,17.87
2018-12-13T15:12:39.708Z,17.93
2018-12-13T15:15:09.482Z,17.57
2018-12-13T15:17:39.145Z,17.97
2018-12-13T15:20:08.811Z,17.97
2018-12-13T15:22:38.499Z,17.70
2018-12-13T15:25:08.322Z,17.63
2018-12-13T15:27:37.971Z,16.87
2018-12-13T15:30:07.868Z,16.90
2018-12-13T15:32:37.553Z,17.73
2018-12-13T15:35:07.548Z,17.93
2018-12-13T15:37:37.235Z,17.57
2018-12-13T15:40:07.390Z,17.63
2018-12-13T15:42:37.180Z,17.47
2018-12-13T15:45:07.976Z,18.30
2018-12-13T15:47:37.607Z,18.00
2018-12-13T15:50:07.981Z,17.87
2018-12-13T15:52:37.747Z,17.47
2018-12-13T15:55:07.434Z,17.70
2018-12-13T15:57:37.021Z,16.70
2018-12-13T16:00:07.768Z,17.97
2018-12-13T16:02:39.355Z,18.47
2018-12-13T16:05:08.970Z,18.50
2018-12-13T16:07:38.539Z,17.67
2018-12-13T16:10:08.217Z,17.00
2018-12-13T16:12:37.794Z,18.53
2018-12-13T16:15:07.666Z,18.33
2018-12-13T16:17:37.253Z,17.30
2018-12-13T16:20:07.051Z,17.17
2018-12-13T16:22:36.779Z,19.27
2018-12-13T16:25:06.561Z,18.23
2018-12-13T16:27:36.187Z,18.17
2018-12-13T16:30:06.707Z,18.27
2018-12-13T16:32:36.319Z,19.10
2018-12-13T16:35:05.955Z,19.27
2018-12-13T16:37:35.593Z,17.70
2018-12-13T16:40:10.270Z,18.47
2018-12-13T16:42:36.901Z,17.93
2018-12-13T16:45:06.712Z,18.30
2018-12-13T16:47:36.301Z,18.13
2018-12-13T16:50:06.728Z,18.23
2018-12-13T16:52:36.410Z,18.80
2018-12-13T16:55:06.156Z,18.83
2018-12-13T16:57:35.728Z,18.43
2018-12-13T17:00:06.827Z,18.27
2018-12-13T17:02:36.412Z,18.43
2018-12-13T17:05:06.166Z,18.33
2018-12-13T17:07:35.871Z,19.17
2018-12-13T17:10:06.575Z,18.67
2018-12-13T17:12:36.156Z,18.70
2018-12-13T17:15:06.870Z,17.63
2018-12-13T17:17:36.521Z,20.17
2018-12-13T17:20:06.331Z,19.60
2018-12-13T17:22:35.948Z,19.57
2018-12-13T17:25:06.012Z,18.53
2018-12-13T17:27:35.597Z,19.17
2018-12-13T17:30:07.640Z,18.90
2018-12-13T17:32:37.230Z,19.70
2018-12-13T17:35:07.081Z,18.83
2018-12-13T17:37:36.931Z,18.70
2018-12-13T17:40:06.730Z,19.10
2018-12-13T17:42:36.331Z,19.13
2018-12-13T17:45:06.168Z,19.97
2018-12-13T17:47:35.895Z,19.07
2018-12-13T17:50:06.069Z,19.97
2018-12-13T17:52:35.832Z,21.00
2018-12-13T17:55:06.702Z,19.23
2018-12-13T17:57:36.312Z,19.47
2018-12-13T18:00:08.004Z,20.47
2018-12-13T18:02:37.658Z,21.20
2018-12-13T18:05:07.376Z,19.53
2018-12-13T18:07:36.973Z,20.40
2018-12-13T18:10:08.856Z,19.77
2018-12-13T18:12:38.465Z,19.83
2018-12-13T18:15:08.416Z,18.33
2018-12-13T18:17:38.132Z,19.87
2018-12-13T18:20:08.071Z,18.57
2018-12-13T18:22:37.647Z,19.40
2018-12-13T18:25:07.328Z,19.97
2018-12-13T18:27:36.916Z,19.87
2018-12-13T18:30:08.676Z,18.87
2018-12-13T18:32:38.280Z,18.97
2018-12-13T18:35:10.336Z,17.90
2018-12-13T18:37:39.955Z,18.80
2018-12-13T18:40:09.772Z,18.60
2018-12-13T18:42:39.364Z,18.43
2018-12-13T18:45:09.208Z,19.10
2018-12-13T18:47:38.836Z,18.30
2018-12-13T18:50:09.568Z,18.40
2018-12-13T18:52:39.172Z,19.60
2018-12-13T18:55:08.842Z,18.87
2018-12-13T18:57:38.464Z,18.23
2018-12-13T19:00:08.505Z,18.33
2018-12-13T19:02:38.095Z,18.67
2018-12-13T19:05:08.075Z,18.33
2018-12-13T19:07:37.719Z,19.87
2018-12-13T19:10:07.553Z,19.17
2018-12-13T19:12:37.207Z,18.70
2018-12-13T19:15:07.833Z,18.93
2018-12-13T19:17:37.409Z,19.43
2018-12-13T19:20:08.008Z,19.50
2018-12-13T19:25:04.899Z,19.07
2018-12-13T19:27:34.824Z,17.90
2018-12-13T19:30:04.897Z,18.67
2018-12-13T19:32:35.892Z,19.33
2018-12-13T19:35:05.953Z,19.17
2018-12-13T19:37:35.728Z,17.23
2018-12-13T19:40:08.200Z,17.67
2018-12-13T19:42:37.776Z,18.00
2018-12-13T19:45:07.607Z,19.37
2018-12-13T19:47:37.292Z,18.03
2018-12-13T19:50:07.112Z,17.87
2018-12-13T19:52:36.752Z,18.07
2018-12-13T19:55:07.926Z,18.00
2018-12-13T19:57:37.599Z,18.50
2018-12-13T20:00:08.712Z,17.70
2018-12-13T20:02:38.309Z,17.70
2018-12-13T20:05:08.099Z,18.40
2018-12-13T20:07:38.624Z,18.53
2018-12-13T20:10:08.978Z,17.10
2018-12-13T20:12:38.601Z,18.93
2018-12-13T20:15:08.289Z,18.53
2018-12-13T20:17:37.892Z,17.77
2018-12-13T20:20:07.883Z,17.57
2018-12-13T20:22:37.495Z,18.50
2018-12-13T20:25:08.611Z,18.77
2018-12-13T20:27:38.248Z,18.87
2018-12-13T20:30:09.036Z,18.57
2018-12-13T20:32:38.770Z,19.47
2018-12-13T20:35:08.620Z,17.90
2018-12-13T20:37:38.669Z,18.63
2018-12-13T20:40:08.336Z,18.47
2018-12-13T20:42:37.938Z,18.17
2018-12-13T20:45:08.401Z,17.57
2018-12-13T20:47:39.299Z,19.40
2018-12-13T20:50:08.955Z,17.70
2018-12-13T20:52:38.883Z,21.07
2018-12-13T20:55:09.142Z,18.97
2018-12-13T20:57:38.715Z,20.20
2018-12-13T21:00:11.249Z,18.30
2018-12-13T21:02:40.836Z,18.43
2018-12-13T21:05:10.562Z,17.87
2018-12-13T21:07:40.135Z,18.13
2018-12-13T21:10:10.427Z,18.70
2018-12-13T21:12:40.003Z,17.67
2018-12-13T21:15:09.818Z,18.70
2018-12-13T21:17:39.660Z,18.60
2018-12-13T21:20:09.461Z,19.10
2018-12-13T21:22:39.447Z,17.87
2018-12-13T21:25:09.075Z,18.03
2018-12-13T21:27:38.961Z,18.50
2018-12-13T21:30:09.028Z,19.03
2018-12-13T21:32:38.604Z,18.60
2018-12-13T21:35:08.497Z,18.40
2018-12-13T21:37:38.075Z,18.03
2018-12-13T21:40:07.881Z,18.83
2018-12-13T21:42:37.502Z,19.13
2018-12-13T21:45:07.248Z,19.63
2018-12-13T21:47:36.823Z,18.30
2018-12-13T21:50:07.663Z,18.63
2018-12-13T21:52:37.368Z,18.43
2018-12-13T21:55:07.242Z,19.30
2018-12-13T21:57:36.836Z,18.57
2018-12-13T22:00:08.816Z,18.80
2018-12-13T22:02:38.408Z,19.03
2018-12-13T22:05:08.220Z,18.93
2018-12-13T22:07:37.798Z,19.10
2018-12-13T22:10:07.829Z,18.90
2018-12-13T22:12:37.420Z,18.97
2018-12-13T22:15:10.720Z,17.60
2018-12-13T22:17:40.351Z,18.67
2018-12-13T22:20:10.035Z,18.33
2018-12-13T22:22:39.732Z,19.30
2018-12-13T22:25:10.291Z,19.20
2018-12-13T22:27:39.940Z,19.10
2018-12-13T22:30:10.740Z,18.73
2018-12-13T22:32:40.432Z,18.73
2018-12-13T22:35:10.094Z,17.87
2018-12-13T22:37:39.851Z,18.13
2018-12-13T22:40:09.704Z,18.47
2018-12-13T22:42:39.468Z,19.17
2018-12-13T22:45:09.480Z,19.47
2018-12-13T22:47:39.060Z,18.53
2018-12-13T22:50:09.296Z,18.50
2018-12-13T22:52:38.867Z,19.47
2018-12-13T22:55:08.620Z,18.63
2018-12-13T22:57:38.201Z,20.60
2018-12-13T23:00:11.796Z,19.07
2018-12-13T23:02:42.700Z,19.53
2018-12-13T23:05:12.472Z,18.47
2018-12-13T23:07:43.055Z,19.60
2018-12-13T23:10:12.680Z,18.53
2018-12-13T23:12:42.587Z,19.03
2018-12-13T23:15:12.264Z,19.13
2018-12-13T23:17:41.848Z,19.77
2018-12-13T23:20:11.585Z,19.63
2018-12-13T23:22:41.304Z,19.37
2018-12-13T23:25:10.975Z,19.00
2018-12-13T23:27:40.660Z,19.03
2018-12-13T23:30:10.289Z,18.60
2018-12-13T23:32:39.963Z,20.20
2018-12-13T23:35:09.566Z,18.80
2018-12-13T23:37:39.193Z,19.20
2018-12-13T23:40:08.891Z,19.00
2018-12-13T23:42:45.338Z,19.07
2018-12-13T23:45:14.920Z,18.73
2018-12-13T23:47:44.522Z,18.53
2018-12-13T23:52:53.777Z,19.17
2018-12-13T23:55:23.376Z,19.93
2018-12-13T23:57:52.964Z,18.43
